sensor_id;sensor_type;location;lat;lon;timestamp;P1;durP1;ratioP1;P2;durP2;ratioP2
19800;SDS011;10060;48.274;12.214;2023-07-13T00:02:56;5.72;;;3.75;;
19800;SDS011;10060;48.274;12.214;2023-07-13T00:05:59;6.32;;;3.80;;
19800;SDS011;10060;48.274;12.214;2023-07-13T00:09:01;6.30;;;4.35;;
19800;SDS011;10060;48.274;12.214;2023-07-13T00:12:04;6.80;;;3.90;;
19800;SDS011;10060;48.274;12.214;2023-07-13T00:15:10;4.95;;;3.60;;
19800;SDS011;10060;48.274;12.214;2023-07-13T00:18:13;4.57;;;3.50;;
19800;SDS011;10060;48.274;12.214;2023-07-13T00:21:17;7.28;;;3.97;;
19800;SDS011;10060;48.274;12.214;2023-07-13T00:24:19;3.83;;;3.40;;
19800;SDS011;10060;48.274;12.214;2023-07-13T00:27:23;6.35;;;3.72;;
19800;SDS011;10060;48.274;12.214;2023-07-13T00:30:26;6.13;;;3.95;;
19800;SDS011;10060;48.274;12.214;2023-07-13T00:33:28;6.38;;;3.22;;
19800;SDS011;10060;48.274;12.214;2023-07-13T00:36:32;5.55;;;3.33;;
19800;SDS011;10060;48.274;12.214;2023-07-13T00:39:34;9.18;;;3.40;;
19800;SDS011;10060;48.274;12.214;2023-07-13T00:42:37;5.05;;;3.10;;
19800;SDS011;10060;48.274;12.214;2023-07-13T00:49:01;6.00;;;4.13;;
19800;SDS011;10060;48.274;12.214;2023-07-13T00:52:05;6.22;;;4.07;;
19800;SDS011;10060;48.274;12.214;2023-07-13T00:55:08;6.53;;;3.72;;
19800;SDS011;10060;48.274;12.214;2023-07-13T00:58:11;7.55;;;4.22;;
19800;SDS011;10060;48.274;12.214;2023-07-13T01:01:13;4.80;;;3.80;;
19800;SDS011;10060;48.274;12.214;2023-07-13T01:04:15;5.80;;;3.38;;
19800;SDS011;10060;48.274;12.214;2023-07-13T01:07:19;6.68;;;3.28;;
19800;SDS011;10060;48.274;12.214;2023-07-13T01:10:21;5.70;;;3.70;;
19800;SDS011;10060;48.274;12.214;2023-07-13T01:13:23;5.53;;;3.42;;
19800;SDS011;10060;48.274;12.214;2023-07-13T01:16:26;5.00;;;3.40;;
19800;SDS011;10060;48.274;12.214;2023-07-13T01:19:32;7.65;;;3.70;;
19800;SDS011;10060;48.274;12.214;2023-07-13T01:22:38;6.63;;;3.78;;
19800;SDS011;10060;48.274;12.214;2023-07-13T01:25:42;8.88;;;3.55;;
19800;SDS011;10060;48.274;12.214;2023-07-13T01:28:44;5.63;;;3.47;;
19800;SDS011;10060;48.274;12.214;2023-07-13T01:31:46;6.10;;;3.90;;
19800;SDS011;10060;48.274;12.214;2023-07-13T01:34:48;7.32;;;3.35;;
19800;SDS011;10060;48.274;12.214;2023-07-13T01:37:52;5.38;;;3.42;;
19800;SDS011;10060;48.274;12.214;2023-07-13T01:40:54;10.43;;;3.55;;
19800;SDS011;10060;48.274;12.214;2023-07-13T01:43:56;7.57;;;3.38;;
19800;SDS011;10060;48.274;12.214;2023-07-13T01:46:58;6.60;;;2.72;;
19800;SDS011;10060;48.274;12.214;2023-07-13T01:50:01;4.90;;;3.22;;
19800;SDS011;10060;48.274;12.214;2023-07-13T01:53:04;5.35;;;3.80;;
19800;SDS011;10060;48.274;12.214;2023-07-13T01:56:06;5.80;;;2.90;;
19800;SDS011;10060;48.274;12.214;2023-07-13T01:59:08;4.25;;;2.83;;
19800;SDS011;10060;48.274;12.214;2023-07-13T02:02:11;10.52;;;3.05;;
19800;SDS011;10060;48.274;12.214;2023-07-13T02:05:13;6.40;;;3.55;;
19800;SDS011;10060;48.274;12.214;2023-07-13T02:08:16;4.88;;;3.60;;
19800;SDS011;10060;48.274;12.214;2023-07-13T02:11:18;5.63;;;3.10;;
19800;SDS011;10060;48.274;12.214;2023-07-13T02:14:20;8.70;;;3.10;;
19800;SDS011;10060;48.274;12.214;2023-07-13T02:17:23;6.85;;;3.70;;
19800;SDS011;10060;48.274;12.214;2023-07-13T02:20:25;8.38;;;4.43;;
19800;SDS011;10060;48.274;12.214;2023-07-13T02:23:28;5.75;;;3.75;;
19800;SDS011;10060;48.274;12.214;2023-07-13T02:26:30;5.78;;;3.45;;
19800;SDS011;10060;48.274;12.214;2023-07-13T02:29:33;11.60;;;3.55;;
19800;SDS011;10060;48.274;12.214;2023-07-13T02:32:35;8.35;;;3.42;;
19800;SDS011;10060;48.274;12.214;2023-07-13T02:35:37;8.98;;;3.58;;
19800;SDS011;10060;48.274;12.214;2023-07-13T02:38:40;9.60;;;3.90;;
19800;SDS011;10060;48.274;12.214;2023-07-13T02:41:42;7.47;;;3.78;;
19800;SDS011;10060;48.274;12.214;2023-07-13T02:44:44;5.50;;;3.42;;
19800;SDS011;10060;48.274;12.214;2023-07-13T02:47:47;12.10;;;4.70;;
19800;SDS011;10060;48.274;12.214;2023-07-13T02:50:49;6.85;;;3.33;;
19800;SDS011;10060;48.274;12.214;2023-07-13T02:53:52;6.32;;;3.03;;
19800;SDS011;10060;48.274;12.214;2023-07-13T02:56:54;8.77;;;3.72;;
19800;SDS011;10060;48.274;12.214;2023-07-13T02:59:56;9.20;;;4.00;;
19800;SDS011;10060;48.274;12.214;2023-07-13T03:02:58;4.85;;;3.30;;
19800;SDS011;10060;48.274;12.214;2023-07-13T03:06:01;4.15;;;3.42;;
19800;SDS011;10060;48.274;12.214;2023-07-13T03:09:06;4.65;;;3.03;;
19800;SDS011;10060;48.274;12.214;2023-07-13T03:12:09;5.80;;;3.60;;
19800;SDS011;10060;48.274;12.214;2023-07-13T03:15:11;10.48;;;3.65;;
19800;SDS011;10060;48.274;12.214;2023-07-13T03:18:13;6.05;;;3.40;;
19800;SDS011;10060;48.274;12.214;2023-07-13T03:21:15;6.88;;;3.45;;
19800;SDS011;10060;48.274;12.214;2023-07-13T03:24:18;6.03;;;3.53;;
19800;SDS011;10060;48.274;12.214;2023-07-13T03:27:23;8.50;;;3.05;;
19800;SDS011;10060;48.274;12.214;2023-07-13T03:30:25;8.68;;;3.60;;
19800;SDS011;10060;48.274;12.214;2023-07-13T03:33:27;4.03;;;2.92;;
19800;SDS011;10060;48.274;12.214;2023-07-13T03:36:30;4.13;;;2.90;;
19800;SDS011;10060;48.274;12.214;2023-07-13T03:39:34;6.47;;;2.80;;
19800;SDS011;10060;48.274;12.214;2023-07-13T03:42:36;5.97;;;3.03;;
19800;SDS011;10060;48.274;12.214;2023-07-13T03:45:38;7.68;;;3.00;;
19800;SDS011;10060;48.274;12.214;2023-07-13T03:48:40;7.68;;;3.72;;
19800;SDS011;10060;48.274;12.214;2023-07-13T03:51:43;6.93;;;3.05;;
19800;SDS011;10060;48.274;12.214;2023-07-13T03:54:47;4.30;;;3.05;;
19800;SDS011;10060;48.274;12.214;2023-07-13T03:57:52;7.40;;;3.38;;
19800;SDS011;10060;48.274;12.214;2023-07-13T04:00:54;6.18;;;3.80;;
19800;SDS011;10060;48.274;12.214;2023-07-13T04:03:57;5.45;;;4.10;;
19800;SDS011;10060;48.274;12.214;2023-07-13T04:06:59;11.25;;;4.28;;
19800;SDS011;10060;48.274;12.214;2023-07-13T04:10:03;9.57;;;4.60;;
19800;SDS011;10060;48.274;12.214;2023-07-13T04:13:05;6.07;;;4.50;;
19800;SDS011;10060;48.274;12.214;2023-07-13T04:16:07;10.52;;;4.85;;
19800;SDS011;10060;48.274;12.214;2023-07-13T04:19:09;11.57;;;5.38;;
19800;SDS011;10060;48.274;12.214;2023-07-13T04:22:12;9.50;;;5.13;;
19800;SDS011;10060;48.274;12.214;2023-07-13T04:25:15;8.23;;;5.47;;
19800;SDS011;10060;48.274;12.214;2023-07-13T04:28:17;8.20;;;5.30;;
19800;SDS011;10060;48.274;12.214;2023-07-13T04:31:19;11.18;;;5.68;;
19800;SDS011;10060;48.274;12.214;2023-07-13T04:34:21;10.63;;;5.90;;
19800;SDS011;10060;48.274;12.214;2023-07-13T04:37:24;6.68;;;5.55;;
19800;SDS011;10060;48.274;12.214;2023-07-13T04:40:27;49.35;;;13.65;;
19800;SDS011;10060;48.274;12.214;2023-07-13T04:43:30;8.07;;;5.38;;
19800;SDS011;10060;48.274;12.214;2023-07-13T04:46:32;9.90;;;5.28;;
19800;SDS011;10060;48.274;12.214;2023-07-13T04:49:34;7.10;;;4.80;;
19800;SDS011;10060;48.274;12.214;2023-07-13T04:52:36;7.47;;;5.05;;
19800;SDS011;10060;48.274;12.214;2023-07-13T04:55:40;6.35;;;4.78;;
19800;SDS011;10060;48.274;12.214;2023-07-13T04:58:42;15.18;;;4.72;;
19800;SDS011;10060;48.274;12.214;2023-07-13T05:01:44;6.75;;;4.60;;
19800;SDS011;10060;48.274;12.214;2023-07-13T05:04:46;9.80;;;4.40;;
19800;SDS011;10060;48.274;12.214;2023-07-13T05:07:48;5.38;;;4.40;;
19800;SDS011;10060;48.274;12.214;2023-07-13T05:10:52;10.80;;;4.95;;
19800;SDS011;10060;48.274;12.214;2023-07-13T05:13:54;10.82;;;5.70;;
19800;SDS011;10060;48.274;12.214;2023-07-13T05:16:56;8.43;;;4.78;;
19800;SDS011;10060;48.274;12.214;2023-07-13T05:19:58;8.98;;;4.75;;
19800;SDS011;10060;48.274;12.214;2023-07-13T05:23:00;5.88;;;4.53;;
19800;SDS011;10060;48.274;12.214;2023-07-13T05:26:04;8.52;;;4.53;;
19800;SDS011;10060;48.274;12.214;2023-07-13T05:29:07;7.32;;;4.40;;
19800;SDS011;10060;48.274;12.214;2023-07-13T05:32:09;8.70;;;4.75;;
19800;SDS011;10060;48.274;12.214;2023-07-13T05:35:11;6.85;;;4.57;;
19800;SDS011;10060;48.274;12.214;2023-07-13T05:38:13;6.80;;;4.68;;
19800;SDS011;10060;48.274;12.214;2023-07-13T05:41:16;7.32;;;4.63;;
19800;SDS011;10060;48.274;12.214;2023-07-13T05:44:18;6.97;;;4.80;;
19800;SDS011;10060;48.274;12.214;2023-07-13T05:47:20;7.90;;;4.97;;
19800;SDS011;10060;48.274;12.214;2023-07-13T05:50:22;5.95;;;4.30;;
19800;SDS011;10060;48.274;12.214;2023-07-13T05:53:25;6.15;;;4.68;;
19800;SDS011;10060;48.274;12.214;2023-07-13T05:56:28;8.00;;;4.70;;
19800;SDS011;10060;48.274;12.214;2023-07-13T05:59:30;6.35;;;4.53;;
19800;SDS011;10060;48.274;12.214;2023-07-13T06:02:32;6.57;;;3.90;;
19800;SDS011;10060;48.274;12.214;2023-07-13T06:05:34;9.98;;;4.95;;
19800;SDS011;10060;48.274;12.214;2023-07-13T06:08:37;8.00;;;4.53;;
19800;SDS011;10060;48.274;12.214;2023-07-13T06:11:41;7.50;;;4.72;;
19800;SDS011;10060;48.274;12.214;2023-07-13T06:14:43;9.35;;;4.63;;
19800;SDS011;10060;48.274;12.214;2023-07-13T06:17:45;6.22;;;4.70;;
19800;SDS011;10060;48.274;12.214;2023-07-13T06:20:47;6.95;;;5.07;;
19800;SDS011;10060;48.274;12.214;2023-07-13T06:23:50;6.80;;;4.90;;
19800;SDS011;10060;48.274;12.214;2023-07-13T06:26:53;8.80;;;5.22;;
19800;SDS011;10060;48.274;12.214;2023-07-13T06:29:55;13.18;;;4.65;;
19800;SDS011;10060;48.274;12.214;2023-07-13T06:32:57;12.25;;;4.75;;
19800;SDS011;10060;48.274;12.214;2023-07-13T06:36:00;6.53;;;4.88;;
19800;SDS011;10060;48.274;12.214;2023-07-13T06:39:03;8.98;;;4.72;;
19800;SDS011;10060;48.274;12.214;2023-07-13T06:42:06;8.02;;;4.55;;
19800;SDS011;10060;48.274;12.214;2023-07-13T06:45:09;4.85;;;3.80;;
19800;SDS011;10060;48.274;12.214;2023-07-13T06:48:11;6.68;;;4.03;;
19800;SDS011;10060;48.274;12.214;2023-07-13T06:51:13;5.68;;;4.07;;
19800;SDS011;10060;48.274;12.214;2023-07-13T06:54:15;5.40;;;4.07;;
19800;SDS011;10060;48.274;12.214;2023-07-13T06:57:19;8.15;;;4.07;;
19800;SDS011;10060;48.274;12.214;2023-07-13T07:00:21;6.22;;;4.03;;
19800;SDS011;10060;48.274;12.214;2023-07-13T07:03:23;5.75;;;3.65;;
19800;SDS011;10060;48.274;12.214;2023-07-13T07:06:25;7.97;;;4.20;;
19800;SDS011;10060;48.274;12.214;2023-07-13T07:09:28;8.82;;;4.50;;
19800;SDS011;10060;48.274;12.214;2023-07-13T07:12:32;7.55;;;4.30;;
19800;SDS011;10060;48.274;12.214;2023-07-13T07:15:34;7.38;;;3.88;;
19800;SDS011;10060;48.274;12.214;2023-07-13T07:18:37;6.70;;;3.95;;
19800;SDS011;10060;48.274;12.214;2023-07-13T07:21:39;7.40;;;3.50;;
19800;SDS011;10060;48.274;12.214;2023-07-13T07:24:41;7.38;;;4.20;;
19800;SDS011;10060;48.274;12.214;2023-07-13T07:27:44;8.88;;;3.42;;
19800;SDS011;10060;48.274;12.214;2023-07-13T07:30:47;8.32;;;3.95;;
19800;SDS011;10060;48.274;12.214;2023-07-13T07:33:49;8.27;;;3.53;;
19800;SDS011;10060;48.274;12.214;2023-07-13T07:36:51;6.50;;;3.60;;
19800;SDS011;10060;48.274;12.214;2023-07-13T07:39:53;6.75;;;3.83;;
19800;SDS011;10060;48.274;12.214;2023-07-13T07:42:57;5.82;;;3.67;;
19800;SDS011;10060;48.274;12.214;2023-07-13T07:45:59;11.50;;;3.92;;
19800;SDS011;10060;48.274;12.214;2023-07-13T07:49:01;5.25;;;3.33;;
19800;SDS011;10060;48.274;12.214;2023-07-13T07:52:03;7.68;;;3.47;;
19800;SDS011;10060;48.274;12.214;2023-07-13T07:55:06;5.53;;;3.40;;
19800;SDS011;10060;48.274;12.214;2023-07-13T07:58:10;8.15;;;3.47;;
19800;SDS011;10060;48.274;12.214;2023-07-13T08:01:12;10.73;;;3.83;;
19800;SDS011;10060;48.274;12.214;2023-07-13T08:04:14;13.88;;;4.25;;
19800;SDS011;10060;48.274;12.214;2023-07-13T08:07:16;4.20;;;3.10;;
19800;SDS011;10060;48.274;12.214;2023-07-13T08:10:18;8.57;;;3.08;;
19800;SDS011;10060;48.274;12.214;2023-07-13T08:13:21;6.28;;;3.78;;
19800;SDS011;10060;48.274;12.214;2023-07-13T08:16:24;8.25;;;4.20;;
19800;SDS011;10060;48.274;12.214;2023-07-13T08:19:26;8.73;;;3.55;;
19800;SDS011;10060;48.274;12.214;2023-07-13T08:22:28;7.40;;;3.22;;
19800;SDS011;10060;48.274;12.214;2023-07-13T08:25:30;5.82;;;3.25;;
19800;SDS011;10060;48.274;12.214;2023-07-13T08:28:33;7.32;;;3.25;;
19800;SDS011;10060;48.274;12.214;2023-07-13T08:31:35;6.75;;;3.50;;
19800;SDS011;10060;48.274;12.214;2023-07-13T08:34:37;5.25;;;3.38;;
19800;SDS011;10060;48.274;12.214;2023-07-13T08:37:40;6.90;;;3.35;;
19800;SDS011;10060;48.274;12.214;2023-07-13T08:40:42;4.75;;;3.50;;
19800;SDS011;10060;48.274;12.214;2023-07-13T08:43:46;6.30;;;2.90;;
19800;SDS011;10060;48.274;12.214;2023-07-13T08:46:49;7.38;;;3.00;;
19800;SDS011;10060;48.274;12.214;2023-07-13T08:49:52;5.32;;;2.70;;
19800;SDS011;10060;48.274;12.214;2023-07-13T08:52:56;4.65;;;2.20;;
19800;SDS011;10060;48.274;12.214;2023-07-13T08:56:00;3.33;;;2.42;;
19800;SDS011;10060;48.274;12.214;2023-07-13T08:59:05;4.68;;;2.95;;
19800;SDS011;10060;48.274;12.214;2023-07-13T09:02:15;5.07;;;2.40;;
19800;SDS011;10060;48.274;12.214;2023-07-13T09:05:21;6.55;;;2.20;;
19800;SDS011;10060;48.274;12.214;2023-07-13T09:08:29;5.00;;;2.70;;
19800;SDS011;10060;48.274;12.214;2023-07-13T09:11:36;6.07;;;2.40;;
19800;SDS011;10060;48.274;12.214;2023-07-13T09:14:44;4.32;;;2.92;;
19800;SDS011;10060;48.274;12.214;2023-07-13T09:17:48;5.22;;;3.00;;
19800;SDS011;10060;48.274;12.214;2023-07-13T09:20:52;5.90;;;2.45;;
19800;SDS011;10060;48.274;12.214;2023-07-13T09:26:57;3.22;;;2.50;;
19800;SDS011;10060;48.274;12.214;2023-07-13T09:30:04;5.40;;;2.70;;
19800;SDS011;10060;48.274;12.214;2023-07-13T09:33:13;3.95;;;2.38;;
19800;SDS011;10060;48.274;12.214;2023-07-13T09:36:17;5.90;;;2.58;;
19800;SDS011;10060;48.274;12.214;2023-07-13T09:39:21;4.50;;;2.60;;
19800;SDS011;10060;48.274;12.214;2023-07-13T09:42:27;4.93;;;2.50;;
19800;SDS011;10060;48.274;12.214;2023-07-13T09:45:32;4.95;;;2.25;;
19800;SDS011;10060;48.274;12.214;2023-07-13T09:48:36;4.47;;;2.40;;
19800;SDS011;10060;48.274;12.214;2023-07-13T09:51:38;5.03;;;2.70;;
19800;SDS011;10060;48.274;12.214;2023-07-13T09:54:43;9.43;;;2.63;;
19800;SDS011;10060;48.274;12.214;2023-07-13T09:57:46;8.32;;;2.70;;
19800;SDS011;10060;48.274;12.214;2023-07-13T10:00:57;4.25;;;2.40;;
19800;SDS011;10060;48.274;12.214;2023-07-13T10:03:59;2.95;;;2.10;;
19800;SDS011;10060;48.274;12.214;2023-07-13T10:07:05;5.22;;;2.20;;
19800;SDS011;10060;48.274;12.214;2023-07-13T10:10:13;7.55;;;2.78;;
19800;SDS011;10060;48.274;12.214;2023-07-13T10:13:26;6.00;;;2.40;;
19800;SDS011;10060;48.274;12.214;2023-07-13T10:16:30;6.47;;;2.50;;
19800;SDS011;10060;48.274;12.214;2023-07-13T10:19:34;4.35;;;2.20;;
19800;SDS011;10060;48.274;12.214;2023-07-13T10:22:38;4.55;;;2.60;;
19800;SDS011;10060;48.274;12.214;2023-07-13T10:25:44;5.25;;;2.60;;
19800;SDS011;10060;48.274;12.214;2023-07-13T10:28:49;3.80;;;1.75;;
19800;SDS011;10060;48.274;12.214;2023-07-13T10:31:54;6.20;;;2.40;;
19800;SDS011;10060;48.274;12.214;2023-07-13T10:34:57;2.42;;;2.10;;
19800;SDS011;10060;48.274;12.214;2023-07-13T10:38:02;3.38;;;1.73;;
19800;SDS011;10060;48.274;12.214;2023-07-13T10:41:07;4.18;;;1.67;;
19800;SDS011;10060;48.274;12.214;2023-07-13T10:44:14;3.92;;;1.92;;
19800;SDS011;10060;48.274;12.214;2023-07-13T10:47:19;4.05;;;1.65;;
19800;SDS011;10060;48.274;12.214;2023-07-13T10:50:22;6.25;;;1.88;;
19800;SDS011;10060;48.274;12.214;2023-07-13T10:53:27;5.00;;;1.67;;
19800;SDS011;10060;48.274;12.214;2023-07-13T10:56:30;4.80;;;1.63;;
19800;SDS011;10060;48.274;12.214;2023-07-13T10:59:32;3.85;;;1.63;;
19800;SDS011;10060;48.274;12.214;2023-07-13T11:02:35;3.92;;;1.35;;
19800;SDS011;10060;48.274;12.214;2023-07-13T11:05:38;2.15;;;1.38;;
19800;SDS011;10060;48.274;12.214;2023-07-13T11:08:50;4.00;;;1.40;;
19800;SDS011;10060;48.274;12.214;2023-07-13T11:11:53;6.28;;;1.80;;
19800;SDS011;10060;48.274;12.214;2023-07-13T11:15:02;2.85;;;0.98;;
19800;SDS011;10060;48.274;12.214;2023-07-13T11:18:10;3.22;;;1.45;;
19800;SDS011;10060;48.274;12.214;2023-07-13T11:21:21;1.75;;;1.33;;
19800;SDS011;10060;48.274;12.214;2023-07-13T11:24:28;4.63;;;1.25;;
19800;SDS011;10060;48.274;12.214;2023-07-13T11:27:33;3.05;;;1.13;;
19800;SDS011;10060;48.274;12.214;2023-07-13T11:30:37;5.15;;;1.50;;
19800;SDS011;10060;48.274;12.214;2023-07-13T11:37:01;3.80;;;1.20;;
19800;SDS011;10060;48.274;12.214;2023-07-13T11:40:04;3.63;;;1.60;;
19800;SDS011;10060;48.274;12.214;2023-07-13T11:43:07;2.38;;;1.33;;
19800;SDS011;10060;48.274;12.214;2023-07-13T11:46:13;6.60;;;1.35;;
19800;SDS011;10060;48.274;12.214;2023-07-13T11:49:15;3.97;;;1.45;;
19800;SDS011;10060;48.274;12.214;2023-07-13T11:52:20;4.32;;;1.50;;
19800;SDS011;10060;48.274;12.214;2023-07-13T11:55:23;4.55;;;1.67;;
19800;SDS011;10060;48.274;12.214;2023-07-13T11:58:26;1.83;;;1.55;;
19800;SDS011;10060;48.274;12.214;2023-07-13T12:01:30;3.72;;;1.75;;
19800;SDS011;10060;48.274;12.214;2023-07-13T12:04:33;4.93;;;2.00;;
19800;SDS011;10060;48.274;12.214;2023-07-13T12:07:37;4.00;;;1.52;;
19800;SDS011;10060;48.274;12.214;2023-07-13T12:10:39;2.75;;;1.60;;
19800;SDS011;10060;48.274;12.214;2023-07-13T12:13:43;3.47;;;2.15;;
19800;SDS011;10060;48.274;12.214;2023-07-13T12:16:45;3.25;;;1.92;;
19800;SDS011;10060;48.274;12.214;2023-07-13T12:19:49;4.45;;;2.10;;
19800;SDS011;10060;48.274;12.214;2023-07-13T12:22:53;1.73;;;1.42;;
19800;SDS011;10060;48.274;12.214;2023-07-13T12:25:55;19.83;;;2.75;;
19800;SDS011;10060;48.274;12.214;2023-07-13T12:28:59;4.75;;;1.83;;
19800;SDS011;10060;48.274;12.214;2023-07-13T12:32:01;5.43;;;2.05;;
19800;SDS011;10060;48.274;12.214;2023-07-13T12:35:12;3.58;;;1.60;;
19800;SDS011;10060;48.274;12.214;2023-07-13T12:38:16;4.10;;;1.98;;
19800;SDS011;10060;48.274;12.214;2023-07-13T12:41:22;6.90;;;1.90;;
19800;SDS011;10060;48.274;12.214;2023-07-13T12:44:27;4.00;;;2.28;;
19800;SDS011;10060;48.274;12.214;2023-07-13T12:47:30;2.05;;;1.45;;
19800;SDS011;10060;48.274;12.214;2023-07-13T12:50:34;4.25;;;2.10;;
19800;SDS011;10060;48.274;12.214;2023-07-13T12:53:40;2.55;;;1.63;;
19800;SDS011;10060;48.274;12.214;2023-07-13T12:56:42;4.15;;;2.00;;
19800;SDS011;10060;48.274;12.214;2023-07-13T12:59:45;5.45;;;1.80;;
19800;SDS011;10060;48.274;12.214;2023-07-13T13:02:48;3.80;;;1.80;;
19800;SDS011;10060;48.274;12.214;2023-07-13T13:05:58;4.38;;;1.80;;
19800;SDS011;10060;48.274;12.214;2023-07-13T13:09:05;2.55;;;1.60;;
19800;SDS011;10060;48.274;12.214;2023-07-13T13:12:11;2.60;;;1.63;;
19800;SDS011;10060;48.274;12.214;2023-07-13T13:15:13;3.03;;;1.70;;
19800;SDS011;10060;48.274;12.214;2023-07-13T13:18:17;3.70;;;1.98;;
19800;SDS011;10060;48.274;12.214;2023-07-13T13:21:19;5.30;;;1.98;;
19800;SDS011;10060;48.274;12.214;2023-07-13T13:24:24;7.30;;;2.40;;
19800;SDS011;10060;48.274;12.214;2023-07-13T13:27:26;3.40;;;1.80;;
19800;SDS011;10060;48.274;12.214;2023-07-13T13:30:29;3.03;;;1.98;;
19800;SDS011;10060;48.274;12.214;2023-07-13T13:33:31;3.83;;;1.77;;
19800;SDS011;10060;48.274;12.214;2023-07-13T13:36:33;4.25;;;2.00;;
19800;SDS011;10060;48.274;12.214;2023-07-13T13:39:37;3.38;;;1.92;;
19800;SDS011;10060;48.274;12.214;2023-07-13T13:42:40;4.88;;;1.75;;
19800;SDS011;10060;48.274;12.214;2023-07-13T13:45:42;1.98;;;1.83;;
19800;SDS011;10060;48.274;12.214;2023-07-13T13:48:44;2.50;;;1.85;;
19800;SDS011;10060;48.274;12.214;2023-07-13T13:51:46;5.38;;;1.77;;
19800;SDS011;10060;48.274;12.214;2023-07-13T13:54:50;3.60;;;1.83;;
19800;SDS011;10060;48.274;12.214;2023-07-13T13:57:55;3.63;;;1.98;;
19800;SDS011;10060;48.274;12.214;2023-07-13T14:00:57;5.57;;;1.58;;
19800;SDS011;10060;48.274;12.214;2023-07-13T14:04:00;4.40;;;1.70;;
19800;SDS011;10060;48.274;12.214;2023-07-13T14:07:02;4.97;;;1.70;;
19800;SDS011;10060;48.274;12.214;2023-07-13T14:10:10;5.50;;;1.67;;
19800;SDS011;10060;48.274;12.214;2023-07-13T14:13:15;3.95;;;2.13;;
19800;SDS011;10060;48.274;12.214;2023-07-13T14:16:19;3.53;;;2.17;;
19800;SDS011;10060;48.274;12.214;2023-07-13T14:19:22;3.22;;;1.88;;
19800;SDS011;10060;48.274;12.214;2023-07-13T14:22:25;2.05;;;1.50;;
19800;SDS011;10060;48.274;12.214;2023-07-13T14:25:28;3.40;;;1.60;;
19800;SDS011;10060;48.274;12.214;2023-07-13T14:28:31;3.50;;;1.80;;
19800;SDS011;10060;48.274;12.214;2023-07-13T14:31:33;3.17;;;1.70;;
19800;SDS011;10060;48.274;12.214;2023-07-13T14:34:35;4.82;;;1.70;;
19800;SDS011;10060;48.274;12.214;2023-07-13T14:37:38;3.58;;;1.90;;
19800;SDS011;10060;48.274;12.214;2023-07-13T14:40:42;2.65;;;1.80;;
19800;SDS011;10060;48.274;12.214;2023-07-13T14:43:44;2.45;;;1.63;;
19800;SDS011;10060;48.274;12.214;2023-07-13T14:46:48;8.13;;;1.80;;
19800;SDS011;10060;48.274;12.214;2023-07-13T14:49:51;4.68;;;2.08;;
19800;SDS011;10060;48.274;12.214;2023-07-13T14:52:53;5.47;;;1.95;;
19800;SDS011;10060;48.274;12.214;2023-07-13T14:55:56;3.25;;;1.80;;
19800;SDS011;10060;48.274;12.214;2023-07-13T14:58:58;3.03;;;1.60;;
19800;SDS011;10060;48.274;12.214;2023-07-13T15:02:00;4.80;;;1.92;;
19800;SDS011;10060;48.274;12.214;2023-07-13T15:05:05;2.45;;;1.80;;
19800;SDS011;10060;48.274;12.214;2023-07-13T15:08:07;3.50;;;1.90;;
19800;SDS011;10060;48.274;12.214;2023-07-13T15:11:12;3.13;;;1.92;;
19800;SDS011;10060;48.274;12.214;2023-07-13T15:14:14;2.15;;;1.50;;
19800;SDS011;10060;48.274;12.214;2023-07-13T15:17:21;3.50;;;1.75;;
19800;SDS011;10060;48.274;12.214;2023-07-13T15:20:26;8.10;;;1.90;;
19800;SDS011;10060;48.274;12.214;2023-07-13T15:23:29;2.30;;;1.70;;
19800;SDS011;10060;48.274;12.214;2023-07-13T15:26:32;4.85;;;1.80;;
19800;SDS011;10060;48.274;12.214;2023-07-13T15:29:35;2.75;;;1.65;;
19800;SDS011;10060;48.274;12.214;2023-07-13T15:32:37;3.17;;;1.63;;
19800;SDS011;10060;48.274;12.214;2023-07-13T15:35:39;3.65;;;1.52;;
19800;SDS011;10060;48.274;12.214;2023-07-13T15:38:42;3.00;;;1.88;;
19800;SDS011;10060;48.274;12.214;2023-07-13T15:41:47;4.40;;;1.80;;
19800;SDS011;10060;48.274;12.214;2023-07-13T15:44:50;5.18;;;1.88;;
19800;SDS011;10060;48.274;12.214;2023-07-13T15:47:52;4.18;;;2.15;;
19800;SDS011;10060;48.274;12.214;2023-07-13T15:50:55;2.17;;;1.33;;
19800;SDS011;10060;48.274;12.214;2023-07-13T15:54:02;2.80;;;1.63;;
19800;SDS011;10060;48.274;12.214;2023-07-13T15:57:08;4.10;;;1.77;;
19800;SDS011;10060;48.274;12.214;2023-07-13T16:00:20;2.15;;;1.65;;
19800;SDS011;10060;48.274;12.214;2023-07-13T16:03:22;3.65;;;1.67;;
19800;SDS011;10060;48.274;12.214;2023-07-13T16:06:26;4.20;;;1.50;;
19800;SDS011;10060;48.274;12.214;2023-07-13T16:09:28;1.63;;;1.52;;
19800;SDS011;10060;48.274;12.214;2023-07-13T16:12:32;3.22;;;1.80;;
19800;SDS011;10060;48.274;12.214;2023-07-13T16:15:34;3.00;;;1.60;;
19800;SDS011;10060;48.274;12.214;2023-07-13T16:18:36;2.42;;;1.90;;
19800;SDS011;10060;48.274;12.214;2023-07-13T16:21:41;2.40;;;1.70;;
19800;SDS011;10060;48.274;12.214;2023-07-13T16:24:44;2.75;;;1.85;;
19800;SDS011;10060;48.274;12.214;2023-07-13T16:27:48;3.20;;;1.50;;
19800;SDS011;10060;48.274;12.214;2023-07-13T16:30:50;1.98;;;1.73;;
19800;SDS011;10060;48.274;12.214;2023-07-13T16:33:52;4.07;;;1.90;;
19800;SDS011;10060;48.274;12.214;2023-07-13T16:36:54;3.00;;;1.85;;
19800;SDS011;10060;48.274;12.214;2023-07-13T16:39:57;3.80;;;1.85;;
19800;SDS011;10060;48.274;12.214;2023-07-13T16:43:01;2.08;;;1.77;;
19800;SDS011;10060;48.274;12.214;2023-07-13T16:46:04;1.88;;;1.60;;
19800;SDS011;10060;48.274;12.214;2023-07-13T16:49:09;7.15;;;2.45;;
19800;SDS011;10060;48.274;12.214;2023-07-13T16:52:13;3.08;;;1.75;;
19800;SDS011;10060;48.274;12.214;2023-07-13T16:55:20;4.32;;;2.17;;
19800;SDS011;10060;48.274;12.214;2023-07-13T16:58:29;2.63;;;1.75;;
19800;SDS011;10060;48.274;12.214;2023-07-13T17:01:31;6.60;;;1.88;;
19800;SDS011;10060;48.274;12.214;2023-07-13T17:04:33;2.55;;;1.58;;
19800;SDS011;10060;48.274;12.214;2023-07-13T17:07:36;2.85;;;1.80;;
19800;SDS011;10060;48.274;12.214;2023-07-13T17:10:38;2.45;;;1.60;;
19800;SDS011;10060;48.274;12.214;2023-07-13T17:13:43;3.47;;;1.83;;
19800;SDS011;10060;48.274;12.214;2023-07-13T17:16:46;4.05;;;2.15;;
19800;SDS011;10060;48.274;12.214;2023-07-13T17:19:49;5.38;;;1.80;;
19800;SDS011;10060;48.274;12.214;2023-07-13T17:22:52;4.65;;;1.98;;
19800;SDS011;10060;48.274;12.214;2023-07-13T17:25:55;6.55;;;1.80;;
19800;SDS011;10060;48.274;12.214;2023-07-13T17:28:58;3.92;;;1.70;;
19800;SDS011;10060;48.274;12.214;2023-07-13T17:32:01;4.38;;;1.67;;
19800;SDS011;10060;48.274;12.214;2023-07-13T17:35:12;5.35;;;1.70;;
19800;SDS011;10060;48.274;12.214;2023-07-13T17:38:16;2.88;;;1.55;;
19800;SDS011;10060;48.274;12.214;2023-07-13T17:41:19;3.92;;;1.45;;
19800;SDS011;10060;48.274;12.214;2023-07-13T17:44:23;2.72;;;1.88;;
19800;SDS011;10060;48.274;12.214;2023-07-13T17:47:25;4.78;;;1.80;;
19800;SDS011;10060;48.274;12.214;2023-07-13T17:50:29;2.72;;;1.80;;
19800;SDS011;10060;48.274;12.214;2023-07-13T17:53:35;2.47;;;1.80;;
19800;SDS011;10060;48.274;12.214;2023-07-13T17:56:38;3.85;;;1.58;;
19800;SDS011;10060;48.274;12.214;2023-07-13T17:59:41;2.33;;;1.75;;
19800;SDS011;10060;48.274;12.214;2023-07-13T18:02:44;2.53;;;1.38;;
19800;SDS011;10060;48.274;12.214;2023-07-13T18:05:46;8.07;;;2.15;;
19800;SDS011;10060;48.274;12.214;2023-07-13T18:08:50;2.15;;;1.70;;
19800;SDS011;10060;48.274;12.214;2023-07-13T18:11:52;4.85;;;1.70;;
19800;SDS011;10060;48.274;12.214;2023-07-13T18:14:58;1.77;;;1.48;;
19800;SDS011;10060;48.274;12.214;2023-07-13T18:18:00;3.47;;;1.80;;